首页
METAR-TAF:

METAR-TAF

机场 :

瓦岱國際機場

永珍, 老挝

纬度: 17-57N, 经度: 102-34E, 海拔: 171米

当前天气观测

该预报发布于30分钟前的15:00 UTC
风速2节,风向北转西北
温度 27°C
湿度 94%
气压 1002 hPa
能見度: 3000
多云层高于4000英尺
多云层高于8300英尺
轻雾

METAR: VLVT 161500Z 34002KT 3000 BR BKN040 BKN083 27/26 Q1002 NOSIG

时间: 22:30 (15:30 UTC)

预报

该预报发布于4小时和30分钟前的11:00 UTC
预报有效从16日的 12点(UTC)到 17日的 12点(UTC)
风速4节,风向西
能見度: 4000
散云层高于1300英尺
多云层高于4000英尺
多云层高于8300英尺

TAF: VLVT 161100Z 1612/1712 27004KT 4000 RA SCT013 BKN040 BKN083

超过4000个机场的气象观测和天气预报(METAR&TAF报告)。

可查询的气象台以黄色和红色小点在地图上表示。

将鼠标移到小点上方,可查看气象台名称。

然后点击查看天气观测和预报。

如需切换地图:点击带黑十字的绿色按钮放大地图;点击带横线的绿色按钮缩小地图;或者点击绿色箭头查看邻近地区的地图。


METAR-TAF: